Westport, Oklahoma
Current Conditions -  °F | °C
As of 5:15 AM on Wednesday 26 Nov 2014 (Local Time) from KOWP Reporting Station
Scattered Clouds Scattered Clouds  
Wind Chill: 40°   Ceiling: Unl
Heat Index: 40°   Visibility: 10mi
Dew Point: 28°   Wind: 0mph
Humidity: 61%   Direction: NA
Pressure: 29.99"   Gusts: NA
Location:  36.248°N, 96.4789°W
Report Text: KOWP 261115Z AUTO 00000KT 10SM SCT110 04/M02 A2999 RMK AO2 T00441025
Loading
Personal Weather Stations






























Interactive Weather Map New forecast layout! Learn more

10-Day Weather Forecast

Advertisements
Track Severe Weather on mobile